createdAt,value
2016-09-25T05:29:19.600Z,24
2016-09-25T05:29:45.152Z,24
2016-09-25T05:30:10.730Z,24
2016-09-25T05:30:36.299Z,24
2016-09-25T05:31:01.988Z,24
2016-09-25T05:31:27.559Z,28
2016-09-25T05:31:53.221Z,28
2016-09-25T05:32:18.862Z,28
2016-09-25T05:32:44.429Z,28
2016-09-25T05:33:10.136Z,32
2016-09-25T05:33:35.709Z,32
2016-09-25T05:34:59.389Z,36
2016-09-25T05:35:24.969Z,36
2016-09-25T05:35:50.512Z,32
2016-09-25T05:36:16.069Z,36
2016-09-25T05:36:41.636Z,36
2016-09-25T05:37:07.221Z,36
2016-09-25T05:37:32.786Z,36
2016-09-25T05:37:58.348Z,44
2016-09-25T05:38:23.919Z,44
2016-09-25T05:38:49.457Z,44
2016-09-25T05:39:15.171Z,44
2016-09-25T05:39:40.736Z,44
2016-09-25T05:40:06.297Z,44
2016-09-25T05:40:31.868Z,44
2016-09-25T05:40:57.442Z,48
2016-09-25T05:41:22.993Z,48
2016-09-25T05:41:48.593Z,48
2016-09-25T05:42:14.153Z,48
2016-09-25T05:42:39.721Z,52
2016-09-25T05:43:05.310Z,52
2016-09-25T05:43:30.868Z,52
2016-09-25T05:43:56.440Z,52
2016-09-25T05:44:22.111Z,56
2016-09-25T05:44:47.711Z,56
2016-09-25T05:45:13.285Z,56
2016-09-25T05:45:38.825Z,56
2016-09-25T05:46:04.431Z,60
2016-09-25T05:46:29.973Z,60
2016-09-25T05:46:55.614Z,60
2016-09-25T05:47:21.191Z,60
2016-09-25T05:47:46.753Z,60
2016-09-25T05:48:12.321Z,64
2016-09-25T05:48:37.875Z,64
2016-09-25T05:49:03.463Z,68
2016-09-25T05:49:29.039Z,68
2016-09-25T05:49:54.599Z,68
2016-09-25T05:50:20.158Z,68
2016-09-25T05:50:45.722Z,72
2016-09-25T05:51:11.263Z,68
2016-09-25T05:51:36.911Z,72
2016-09-25T05:52:02.517Z,72
2016-09-25T05:52:28.086Z,72
2016-09-25T05:52:53.690Z,72
2016-09-25T05:53:19.265Z,76
2016-09-25T05:53:44.827Z,80
2016-09-25T05:54:10.383Z,76
2016-09-25T05:54:35.943Z,80
2016-09-25T05:55:01.514Z,80
2016-09-25T05:55:27.081Z,80
2016-09-25T05:55:52.686Z,80
2016-09-25T05:56:18.251Z,84
2016-09-25T05:56:43.887Z,84
2016-09-25T05:57:09.471Z,84
2016-09-25T05:57:35.019Z,84
2016-09-25T05:58:00.584Z,84
2016-09-25T05:58:26.327Z,84
2016-09-25T05:58:51.880Z,88
2016-09-25T05:59:17.451Z,88
2016-09-25T05:59:43.063Z,88
2016-09-25T06:01:06.972Z,92
2016-09-25T06:01:32.799Z,92
2016-09-25T06:01:58.414Z,96
2016-09-25T06:02:23.962Z,92
2016-09-25T06:02:49.524Z,92
2016-09-25T06:03:15.118Z,92
2016-09-25T06:03:40.769Z,96
2016-09-25T06:05:04.455Z,100
2016-09-25T06:07:11.541Z,104
2016-09-25T06:07:37.099Z,104
2016-09-25T06:08:40.388Z,104
2016-09-25T06:09:06.001Z,108
2016-09-25T06:09:31.631Z,104
2016-09-25T06:09:57.279Z,108
2016-09-25T06:10:22.896Z,108
2016-09-25T06:11:36.293Z,112
2016-09-25T06:12:01.841Z,108
2016-09-25T06:12:27.410Z,112
2016-09-25T06:12:53.074Z,112
2016-09-25T06:13:18.922Z,112
2016-09-25T06:13:44.522Z,112
2016-09-25T06:14:10.113Z,112
2016-09-25T06:14:35.673Z,112
2016-09-25T06:15:01.234Z,112
2016-09-25T06:15:26.805Z,116
2016-09-25T06:15:52.410Z,116
2016-09-25T06:16:18.005Z,116
2016-09-25T06:16:43.586Z,116
2016-09-25T06:17:09.146Z,116
2016-09-25T06:17:34.726Z,116
2016-09-25T06:18:00.321Z,120
2016-09-25T06:18:25.931Z,116
2016-09-25T06:18:51.530Z,120
2016-09-25T06:19:17.175Z,120
2016-09-25T06:19:42.748Z,116
2016-09-25T06:20:08.513Z,120
2016-09-25T06:20:34.090Z,120
2016-09-25T06:20:59.624Z,120
2016-09-25T06:21:25.209Z,120
2016-09-25T06:21:50.775Z,120
2016-09-25T06:22:16.403Z,124
2016-09-25T06:22:41.947Z,120
2016-09-25T06:23:07.525Z,124
2016-09-25T06:23:33.080Z,124
2016-09-25T06:23:58.863Z,124
2016-09-25T06:24:24.403Z,124
2016-09-25T06:24:49.980Z,124
2016-09-25T06:25:15.670Z,124
2016-09-25T06:25:41.232Z,124
2016-09-25T06:26:06.796Z,128
2016-09-25T06:26:32.355Z,124
2016-09-25T06:26:57.956Z,128
2016-09-25T06:27:23.553Z,124
2016-09-25T06:27:49.113Z,128
2016-09-25T06:28:14.722Z,128
2016-09-25T06:28:40.410Z,128
2016-09-25T06:29:05.960Z,128
2016-09-25T06:29:31.527Z,132
2016-09-25T06:29:57.150Z,132
2016-09-25T06:31:00.525Z,132
2016-09-25T06:31:26.141Z,128
2016-09-25T06:31:51.717Z,132
2016-09-25T06:32:17.279Z,132
2016-09-25T06:32:42.879Z,132
2016-09-25T06:33:08.828Z,132
2016-09-25T06:33:34.647Z,136
2016-09-25T06:34:00.264Z,132
2016-09-25T06:34:26.097Z,136
2016-09-25T06:34:51.670Z,136
2016-09-25T06:35:17.247Z,136
2016-09-25T06:35:42.915Z,136
2016-09-25T06:36:08.453Z,140
2016-09-25T06:36:34.022Z,136
2016-09-25T06:36:59.788Z,136
2016-09-25T06:38:18.666Z,140
2016-09-25T06:38:44.515Z,140
2016-09-25T06:39:10.019Z,140
2016-09-25T06:39:35.573Z,140
2016-09-25T06:40:01.143Z,140
2016-09-25T06:40:27.198Z,144
2016-09-25T06:40:55.530Z,140
2016-09-25T06:41:21.088Z,144
2016-09-25T06:41:46.664Z,140
2016-09-25T06:42:12.330Z,144
2016-09-25T06:42:37.884Z,144
2016-09-25T06:43:03.429Z,144
2016-09-25T06:43:28.999Z,144
2016-09-25T06:43:54.576Z,144
2016-09-25T06:44:33.064Z,144
2016-09-25T06:44:58.608Z,148
2016-09-25T06:46:14.223Z,148
2016-09-25T06:46:39.792Z,148
2016-09-25T06:47:05.384Z,148
2016-09-25T06:47:30.965Z,148
2016-09-25T06:47:56.552Z,148
2016-09-25T06:48:22.107Z,148
2016-09-25T06:48:47.673Z,152
2016-09-25T06:49:13.229Z,148
2016-09-25T06:49:38.981Z,148
2016-09-25T06:50:04.540Z,148
2016-09-25T06:50:30.280Z,148
2016-09-25T06:50:55.863Z,152
2016-09-25T06:51:21.451Z,152
2016-09-25T06:51:47.101Z,152
2016-09-25T06:52:12.646Z,152
2016-09-25T06:52:38.199Z,152
2016-09-25T06:53:03.748Z,152
2016-09-25T06:53:29.301Z,152
2016-09-25T06:53:54.866Z,156
2016-09-25T06:54:20.426Z,156
2016-09-25T06:54:46.093Z,152
2016-09-25T06:55:11.652Z,152
2016-09-25T06:55:37.213Z,156
2016-09-25T06:56:02.762Z,152
2016-09-25T06:56:28.400Z,152
2016-09-25T06:56:53.950Z,156
2016-09-25T06:57:19.532Z,156
2016-09-25T06:57:45.108Z,156
2016-09-25T06:58:10.676Z,156
2016-09-25T06:58:36.323Z,156
2016-09-25T06:59:01.843Z,156
2016-09-25T06:59:27.381Z,156
2016-09-25T06:59:52.904Z,160
2016-09-25T07:00:18.454Z,160
2016-09-25T07:00:44.011Z,160
2016-09-25T07:01:09.598Z,160
2016-09-25T07:01:35.149Z,156
2016-09-25T07:02:00.690Z,156
2016-09-25T07:02:26.235Z,156
2016-09-25T07:02:51.785Z,160
2016-09-25T07:03:17.378Z,160
2016-09-25T07:03:42.917Z,160
2016-09-25T07:04:08.466Z,160
2016-09-25T07:04:34.032Z,160
2016-09-25T07:04:59.582Z,160
2016-09-25T07:05:25.197Z,160
2016-09-25T07:05:50.734Z,164
2016-09-25T07:06:16.309Z,164
2016-09-25T07:06:41.889Z,160
2016-09-25T07:07:07.610Z,160
2016-09-25T07:07:33.194Z,164
2016-09-25T07:07:58.759Z,164
2016-09-25T07:08:24.324Z,164
2016-09-25T07:08:49.889Z,164
2016-09-25T07:09:15.532Z,164
2016-09-25T07:09:41.244Z,164
2016-09-25T07:10:06.799Z,164
2016-09-25T07:10:32.383Z,164
2016-09-25T07:10:57.965Z,164
2016-09-25T07:11:23.660Z,164
2016-09-25T07:11:49.266Z,164
2016-09-25T07:12:14.883Z,168
2016-09-25T07:12:40.511Z,164
2016-09-25T07:13:06.105Z,168
2016-09-25T07:13:31.676Z,164
2016-09-25T07:13:57.252Z,168
2016-09-25T07:14:22.824Z,164
2016-09-25T07:14:48.448Z,164
2016-09-25T07:15:14.095Z,168
2016-09-25T07:15:39.673Z,168
2016-09-25T07:16:05.401Z,168
2016-09-25T07:16:30.974Z,172
2016-09-25T07:16:56.566Z,172
2016-09-25T07:17:22.129Z,172
2016-09-25T07:18:40.710Z,172
2016-09-25T07:20:04.331Z,172
2016-09-25T07:20:29.895Z,172
2016-09-25T07:22:37.142Z,176
2016-09-25T07:23:02.704Z,176
2016-09-25T07:23:28.296Z,176
2016-09-25T07:23:53.834Z,176
2016-09-25T07:24:19.381Z,176
2016-09-25T07:24:44.946Z,176
2016-09-25T07:25:10.581Z,180
2016-09-25T07:25:36.336Z,176
2016-09-25T07:26:01.903Z,180
2016-09-25T07:26:27.472Z,176
2016-09-25T07:26:53.038Z,180
2016-09-25T07:28:01.485Z,176
2016-09-25T07:28:27.204Z,180
2016-09-25T07:28:52.772Z,180
2016-09-25T07:29:18.340Z,184
2016-09-25T07:29:44.028Z,184
2016-09-25T07:30:09.597Z,184
2016-09-25T07:30:35.178Z,180
2016-09-25T07:31:00.756Z,180
2016-09-25T07:31:26.313Z,184
2016-09-25T07:31:52.010Z,180
2016-09-25T07:32:17.460Z,184
2016-09-25T07:32:43.042Z,184
2016-09-25T07:33:08.599Z,184
2016-09-25T07:33:34.161Z,184
2016-09-25T07:33:59.726Z,188
2016-09-25T07:34:25.263Z,188
2016-09-25T07:34:50.891Z,188
2016-09-25T07:35:16.452Z,184
2016-09-25T07:35:42.007Z,184
2016-09-25T07:36:07.552Z,188
2016-09-25T07:36:33.109Z,184
2016-09-25T07:36:58.678Z,184
2016-09-25T07:37:24.260Z,188
2016-09-25T07:37:49.804Z,188
2016-09-25T07:38:15.402Z,184
2016-09-25T07:38:40.960Z,184
2016-09-25T07:39:06.537Z,184
2016-09-25T07:39:32.174Z,184
2016-09-25T07:39:57.804Z,188
2016-09-25T07:40:23.383Z,188
2016-09-25T07:40:48.929Z,188
2016-09-25T07:41:14.504Z,188
2016-09-25T07:41:40.085Z,188
2016-09-25T07:42:05.788Z,188
2016-09-25T07:42:31.364Z,188
2016-09-25T07:42:56.941Z,188
2016-09-25T07:43:22.501Z,188
2016-09-25T07:43:48.231Z,188
2016-09-25T07:44:14.036Z,188
2016-09-25T07:44:39.623Z,188
2016-09-25T07:45:05.457Z,188
2016-09-25T07:45:31.022Z,188
2016-09-25T07:45:56.585Z,188
2016-09-25T07:46:22.278Z,188
2016-09-25T07:46:47.878Z,192
2016-09-25T07:47:13.446Z,188
2016-09-25T07:47:39.003Z,188
2016-09-25T07:48:04.555Z,192
2016-09-25T07:48:30.130Z,192
2016-09-25T07:48:55.790Z,192
2016-09-25T07:49:21.454Z,188
2016-09-25T07:49:47.014Z,188
2016-09-25T07:50:12.592Z,192
2016-09-25T07:50:38.172Z,188
2016-09-25T07:51:03.739Z,192
2016-09-25T07:51:29.311Z,192
2016-09-25T07:51:54.876Z,192
2016-09-25T07:52:20.459Z,192
2016-09-25T07:52:46.042Z,192
2016-09-25T07:53:11.619Z,192
2016-09-25T07:53:37.233Z,188
2016-09-25T07:54:02.773Z,192
2016-09-25T07:54:28.522Z,192
2016-09-25T07:54:54.128Z,192
2016-09-25T07:55:19.682Z,196
2016-09-25T07:55:45.272Z,192
2016-09-25T07:56:10.832Z,192
2016-09-25T07:56:36.396Z,192
2016-09-25T07:57:01.960Z,196
2016-09-25T07:57:27.539Z,192
2016-09-25T07:57:53.079Z,196
2016-09-25T07:58:18.695Z,192
2016-09-25T07:58:44.258Z,192
2016-09-25T07:59:09.842Z,192
2016-09-25T07:59:35.387Z,192
2016-09-25T08:00:01.022Z,188
2016-09-25T08:00:26.589Z,192
2016-09-25T08:00:52.261Z,192
2016-09-25T08:01:17.832Z,192
2016-09-25T08:01:43.381Z,196
2016-09-25T08:02:08.955Z,196
2016-09-25T08:02:34.535Z,196
2016-09-25T08:03:00.088Z,196
2016-09-25T08:03:25.666Z,196
2016-09-25T08:03:51.238Z,192
2016-09-25T08:04:16.801Z,196
2016-09-25T08:04:42.375Z,196
2016-09-25T08:05:07.936Z,196
2016-09-25T08:05:33.512Z,196
2016-09-25T08:05:59.105Z,196
2016-09-25T08:06:24.667Z,196
2016-09-25T08:06:50.267Z,196
2016-09-25T08:07:16.045Z,196
2016-09-25T08:07:41.649Z,196
2016-09-25T08:08:07.225Z,200
2016-09-25T08:08:32.838Z,196
2016-09-25T08:08:58.399Z,200
2016-09-25T08:09:23.968Z,196
2016-09-25T08:09:49.525Z,196
2016-09-25T08:10:15.105Z,200
2016-09-25T08:10:40.679Z,200
2016-09-25T08:11:06.253Z,200
2016-09-25T08:11:31.830Z,200
2016-09-25T08:11:57.394Z,200
2016-09-25T08:12:23.038Z,200
2016-09-25T08:12:48.618Z,200
2016-09-25T08:13:14.194Z,204
2016-09-25T08:13:39.834Z,200
2016-09-25T08:14:05.394Z,200
2016-09-25T08:14:30.972Z,200
2016-09-25T08:14:56.546Z,204
2016-09-25T08:15:22.142Z,200
2016-09-25T08:15:47.755Z,200
2016-09-25T08:16:13.326Z,204
2016-09-25T08:16:38.970Z,204
2016-09-25T08:17:04.543Z,204
2016-09-25T08:17:30.109Z,204
2016-09-25T08:17:55.678Z,208
2016-09-25T08:18:21.245Z,204
2016-09-25T08:18:46.816Z,204
2016-09-25T08:19:12.385Z,208
2016-09-25T08:19:37.999Z,204
2016-09-25T08:20:03.562Z,204
2016-09-25T08:20:29.145Z,208
2016-09-25T08:20:54.730Z,208
2016-09-25T08:21:20.294Z,204
2016-09-25T08:21:45.859Z,208
2016-09-25T08:22:11.640Z,208
2016-09-25T08:22:37.223Z,204
2016-09-25T08:24:00.993Z,208
2016-09-25T08:24:26.534Z,208
2016-09-25T08:24:52.157Z,208
2016-09-25T08:25:17.716Z,208
2016-09-25T08:25:43.289Z,208
2016-09-25T08:26:08.855Z,208
2016-09-25T08:26:34.413Z,208
2016-09-25T08:26:59.992Z,208
2016-09-25T08:27:25.542Z,208
2016-09-25T08:27:51.111Z,208
2016-09-25T08:28:16.683Z,208
2016-09-25T08:28:42.230Z,208
2016-09-25T08:29:07.803Z,208
2016-09-25T08:29:33.380Z,208
2016-09-25T08:29:59.005Z,208
2016-09-25T08:30:24.581Z,212
2016-09-25T08:30:50.153Z,208
2016-09-25T08:31:15.716Z,212
2016-09-25T08:31:41.534Z,212
2016-09-25T08:32:07.176Z,212
2016-09-25T08:32:32.767Z,212
2016-09-25T08:32:58.465Z,212
2016-09-25T08:33:24.065Z,212
2016-09-25T08:33:49.696Z,212
2016-09-25T08:34:15.322Z,216
2016-09-25T08:34:40.915Z,212
2016-09-25T08:35:06.485Z,212
2016-09-25T08:35:32.043Z,212
2016-09-25T08:35:57.608Z,216
2016-09-25T08:36:23.191Z,212
2016-09-25T08:36:48.818Z,212
2016-09-25T08:37:14.437Z,216
2016-09-25T08:37:40.043Z,212
2016-09-25T08:38:05.622Z,216
2016-09-25T08:38:31.265Z,216
2016-09-25T08:38:56.818Z,216
2016-09-25T08:39:22.426Z,216
2016-09-25T08:39:47.986Z,216
2016-09-25T08:40:13.689Z,216
2016-09-25T08:40:39.327Z,220
2016-09-25T08:41:04.898Z,216
2016-09-25T08:41:30.479Z,216
2016-09-25T08:41:56.060Z,216
2016-09-25T08:42:21.631Z,216
2016-09-25T08:42:47.205Z,220
2016-09-25T08:43:12.828Z,216
2016-09-25T08:43:38.425Z,220
2016-09-25T08:44:03.994Z,220
2016-09-25T08:44:29.650Z,220
2016-09-25T08:44:55.293Z,220
2016-09-25T08:45:20.884Z,220
2016-09-25T08:45:46.502Z,220
2016-09-25T08:46:12.132Z,220
2016-09-25T08:46:37.719Z,220
2016-09-25T08:48:01.473Z,220
2016-09-25T08:48:27.118Z,220
2016-09-25T08:48:52.817Z,224
2016-09-25T08:49:18.394Z,224
2016-09-25T08:49:44.036Z,220
2016-09-25T08:50:09.637Z,220
2016-09-25T08:50:35.219Z,224
2016-09-25T08:51:00.794Z,224
2016-09-25T08:51:26.374Z,224
2016-09-25T08:51:51.958Z,224
2016-09-25T08:53:05.412Z,224
2016-09-25T08:53:31.008Z,224
2016-09-25T08:53:56.578Z,224
2016-09-25T08:54:22.390Z,224
2016-09-25T08:54:47.945Z,224
2016-09-25T08:55:13.488Z,224
2016-09-25T08:55:39.048Z,228
2016-09-25T08:56:52.432Z,224
2016-09-25T08:57:17.999Z,224
2016-09-25T08:57:43.557Z,228
2016-09-25T08:58:09.138Z,224
2016-09-25T08:58:34.727Z,228
2016-09-25T08:59:00.361Z,228
2016-09-25T08:59:25.920Z,224
2016-09-25T08:59:51.483Z,228
2016-09-25T09:00:17.448Z,228
2016-09-25T09:00:43.017Z,228
2016-09-25T09:01:08.586Z,228
2016-09-25T09:01:34.167Z,228
2016-09-25T09:01:59.752Z,228
2016-09-25T09:02:25.326Z,232
2016-09-25T09:02:50.896Z,228
2016-09-25T09:03:16.471Z,228
2016-09-25T09:03:42.047Z,232
2016-09-25T09:04:07.610Z,232
2016-09-25T09:04:33.195Z,228
2016-09-25T09:04:58.769Z,232
2016-09-25T09:05:24.315Z,228
2016-09-25T09:05:49.969Z,228
2016-09-25T09:06:15.549Z,228
2016-09-25T09:06:41.126Z,224
2016-09-25T09:07:06.686Z,224
2016-09-25T09:07:32.285Z,220
2016-09-25T09:07:57.866Z,224
2016-09-25T09:08:23.445Z,228
2016-09-25T09:08:49.020Z,232
2016-09-25T09:09:14.572Z,232
2016-09-25T09:09:40.154Z,232
2016-09-25T09:10:05.728Z,232
2016-09-25T09:10:31.290Z,232
2016-09-25T09:10:56.862Z,236
2016-09-25T09:11:22.413Z,236
2016-09-25T09:11:47.990Z,232
2016-09-25T09:12:13.516Z,232
2016-09-25T09:12:39.083Z,236
2016-09-25T09:13:04.644Z,244
2016-09-25T09:13:30.266Z,244
2016-09-25T09:13:55.815Z,240
2016-09-25T09:14:21.365Z,240
2016-09-25T09:14:46.930Z,240
2016-09-25T09:15:12.490Z,240
2016-09-25T09:15:38.051Z,244
2016-09-25T09:16:03.620Z,244
2016-09-25T09:16:29.190Z,248
2016-09-25T09:16:54.730Z,248
2016-09-25T09:17:20.266Z,252
2016-09-25T09:17:45.826Z,248
2016-09-25T09:18:11.422Z,252
2016-09-25T09:18:36.982Z,252
2016-09-25T09:19:02.716Z,256
2016-09-25T09:19:28.296Z,252
2016-09-25T09:19:53.912Z,252
2016-09-25T09:20:19.495Z,256
2016-09-25T09:20:45.049Z,260
2016-09-25T09:21:10.670Z,260
2016-09-25T09:21:36.291Z,260
2016-09-25T09:22:01.870Z,260
2016-09-25T09:22:27.537Z,260
2016-09-25T09:22:53.078Z,260
2016-09-25T09:23:18.664Z,264
2016-09-25T09:23:44.236Z,264
2016-09-25T09:24:09.849Z,264
2016-09-25T09:24:35.411Z,264
2016-09-25T09:25:01.116Z,268
2016-09-25T09:25:26.689Z,268
2016-09-25T09:25:52.270Z,268
2016-09-25T09:26:17.861Z,268
2016-09-25T09:26:43.449Z,272
2016-09-25T09:27:09.021Z,272
2016-09-25T09:27:34.579Z,272
2016-09-25T09:28:00.162Z,272
2016-09-25T09:28:25.741Z,276
2016-09-25T09:28:51.279Z,276
2016-09-25T09:29:16.867Z,276
2016-09-25T09:29:42.425Z,276
2016-09-25T09:30:08.016Z,280
2016-09-25T09:30:33.617Z,280
2016-09-25T09:30:59.186Z,280
2016-09-25T09:31:24.762Z,280
2016-09-25T09:31:50.317Z,284
2016-09-25T09:32:15.911Z,284
2016-09-25T09:32:41.473Z,284
2016-09-25T09:33:07.047Z,284
2016-09-25T09:33:32.634Z,284
2016-09-25T09:33:58.388Z,288
2016-09-25T09:34:23.943Z,288
2016-09-25T09:34:49.545Z,292
2016-09-25T09:35:15.145Z,288
2016-09-25T09:35:40.770Z,296
2016-09-25T09:36:06.211Z,296
2016-09-25T09:36:31.872Z,296
2016-09-25T09:36:57.450Z,296
2016-09-25T09:37:22.989Z,300
2016-09-25T09:38:26.214Z,300
2016-09-25T09:38:51.864Z,304
2016-09-25T09:39:17.426Z,304
2016-09-25T09:39:42.987Z,308
2016-09-25T09:40:08.575Z,308
2016-09-25T09:40:34.154Z,308
2016-09-25T09:40:59.719Z,308
2016-09-25T09:41:25.259Z,308
2016-09-25T09:41:50.810Z,308
2016-09-25T09:42:16.367Z,312
2016-09-25T09:42:42.005Z,312
2016-09-25T09:43:08.213Z,76
2016-09-25T09:43:34.693Z,308
2016-09-25T09:44:00.257Z,312
2016-09-25T09:44:26.331Z,308
2016-09-25T09:44:51.860Z,312
2016-09-25T09:45:19.375Z,316
2016-09-25T09:45:44.915Z,312
2016-09-25T09:46:12.111Z,316
2016-09-25T09:46:37.676Z,316
2016-09-25T09:47:03.315Z,320
2016-09-25T09:47:28.940Z,316
2016-09-25T09:47:54.553Z,320
2016-09-25T09:48:20.130Z,324
2016-09-25T09:48:45.801Z,320
2016-09-25T09:49:11.372Z,324
2016-09-25T09:49:36.932Z,328
2016-09-25T09:50:02.677Z,328
2016-09-25T09:51:26.498Z,332
2016-09-25T09:51:52.075Z,332
2016-09-25T09:52:17.633Z,332
2016-09-25T09:52:43.227Z,336
2016-09-25T09:53:09.825Z,332
2016-09-25T09:53:35.522Z,340
2016-09-25T09:54:01.084Z,340
2016-09-25T09:54:26.648Z,340
2016-09-25T09:54:52.229Z,340
2016-09-25T09:55:18.200Z,344
2016-09-25T09:55:43.770Z,348
2016-09-25T09:56:09.326Z,348
2016-09-25T09:56:34.896Z,348
2016-09-25T09:57:00.481Z,348
2016-09-25T09:57:26.040Z,352
2016-09-25T09:57:51.728Z,348
2016-09-25T09:58:17.270Z,352
2016-09-25T09:58:42.927Z,356
2016-09-25T09:59:08.546Z,356
2016-09-25T09:59:34.115Z,356
2016-09-25T09:59:59.736Z,360
2016-09-25T10:00:25.305Z,360
2016-09-25T10:00:50.872Z,360
2016-09-25T10:01:16.432Z,360
2016-09-25T10:01:41.999Z,364
2016-09-25T10:02:07.630Z,364
2016-09-25T10:02:33.211Z,368
2016-09-25T10:02:58.761Z,368
2016-09-25T10:03:24.308Z,372
2016-09-25T10:03:49.871Z,376
2016-09-25T10:04:15.418Z,376
2016-09-25T10:04:41.002Z,376
2016-09-25T10:05:06.566Z,380
2016-09-25T10:05:32.278Z,380
2016-09-25T10:05:57.834Z,384
2016-09-25T10:06:23.414Z,384
2016-09-25T10:06:49.004Z,388
2016-09-25T10:07:14.666Z,392
2016-09-25T10:07:40.218Z,392
2016-09-25T10:08:05.852Z,392
2016-09-25T10:08:31.429Z,396
2016-09-25T10:08:57.022Z,400
2016-09-25T10:09:22.600Z,404
2016-09-25T10:09:48.228Z,404
2016-09-25T10:10:13.795Z,408
2016-09-25T10:10:39.364Z,408
2016-09-25T10:11:04.932Z,408
2016-09-25T10:11:30.495Z,412
2016-09-25T10:11:56.096Z,412
2016-09-25T10:12:21.768Z,416
2016-09-25T10:12:47.366Z,416
2016-09-25T10:14:05.937Z,420
2016-09-25T10:14:31.517Z,428
2016-09-25T10:14:57.135Z,428
2016-09-25T10:16:10.218Z,436
2016-09-25T10:16:35.775Z,436
2016-09-25T10:17:01.342Z,436
2016-09-25T10:17:26.885Z,444
2016-09-25T10:17:52.758Z,444
2016-09-25T10:18:18.447Z,448
2016-09-25T10:18:44.020Z,452
2016-09-25T10:19:10.177Z,452
2016-09-25T10:19:35.740Z,452
2016-09-25T10:20:01.960Z,456
2016-09-25T10:20:27.609Z,456
2016-09-25T10:20:53.768Z,464
2016-09-25T10:21:19.328Z,464
2016-09-25T10:21:44.902Z,464
2016-09-25T10:22:11.248Z,472
2016-09-25T10:22:36.829Z,468
2016-09-25T10:23:02.895Z,460
2016-09-25T10:23:28.449Z,472
2016-09-25T10:23:54.043Z,476
2016-09-25T10:24:20.279Z,480
2016-09-25T10:24:45.874Z,484
2016-09-25T10:25:12.054Z,484
2016-09-25T10:25:37.645Z,484
2016-09-25T10:26:03.822Z,492
2016-09-25T10:26:29.408Z,492
2016-09-25T10:26:54.976Z,496
2016-09-25T10:27:21.317Z,500
2016-09-25T10:27:46.899Z,500
2016-09-25T10:28:13.061Z,504
2016-09-25T10:28:38.690Z,508
2016-09-25T10:29:04.254Z,508
2016-09-25T10:29:30.400Z,512
2016-09-25T10:29:55.980Z,516
2016-09-25T10:30:22.177Z,520
2016-09-25T10:30:47.861Z,524
2016-09-25T10:31:13.928Z,528
2016-09-25T10:31:39.575Z,528
2016-09-25T10:32:05.176Z,528
2016-09-25T10:32:31.324Z,532
2016-09-25T10:32:56.943Z,532
2016-09-25T10:33:23.116Z,536
2016-09-25T10:33:48.724Z,540
2016-09-25T10:34:14.291Z,544
2016-09-25T10:34:40.538Z,544
2016-09-25T10:35:06.106Z,548
2016-09-25T10:35:32.241Z,552
2016-09-25T10:35:57.832Z,560
2016-09-25T10:36:24.030Z,564
2016-09-25T10:36:49.610Z,564
2016-09-25T10:37:15.184Z,568
2016-09-25T10:37:41.377Z,572
2016-09-25T10:38:06.978Z,576
2016-09-25T10:38:33.165Z,584
2016-09-25T10:38:58.738Z,592
2016-09-25T10:39:24.308Z,592
2016-09-25T10:39:50.541Z,600
2016-09-25T10:40:16.123Z,600
2016-09-25T10:40:42.332Z,604
2016-09-25T10:41:07.924Z,608
2016-09-25T10:41:34.101Z,612
2016-09-25T10:41:59.652Z,612
2016-09-25T10:42:25.230Z,620
2016-09-25T10:42:51.472Z,624
2016-09-25T10:43:17.151Z,632
2016-09-25T10:43:43.231Z,636
2016-09-25T10:44:08.867Z,644
2016-09-25T10:44:34.504Z,644
2016-09-25T10:45:00.727Z,652
2016-09-25T10:46:09.237Z,656
2016-09-25T10:46:34.826Z,664
2016-09-25T10:47:00.384Z,664
2016-09-25T10:47:25.946Z,668
2016-09-25T10:47:51.508Z,672
2016-09-25T10:48:17.070Z,676
2016-09-25T10:48:42.636Z,680
2016-09-25T10:49:08.201Z,684
2016-09-25T10:49:33.786Z,684
2016-09-25T10:49:59.392Z,692
2016-09-25T10:50:24.984Z,700
2016-09-25T10:50:50.520Z,704
2016-09-25T10:51:16.094Z,708
2016-09-25T10:51:41.686Z,708
2016-09-25T10:52:07.238Z,716
2016-09-25T10:52:32.858Z,724
2016-09-25T10:52:58.426Z,728
2016-09-25T10:53:23.980Z,732
2016-09-25T10:53:49.620Z,736
2016-09-25T10:54:15.189Z,740
2016-09-25T10:54:40.765Z,744
2016-09-25T10:55:06.354Z,748
2016-09-25T10:55:31.897Z,756
2016-09-25T10:55:57.488Z,760
2016-09-25T10:56:23.035Z,760
2016-09-25T10:56:48.596Z,764
2016-09-25T10:57:14.187Z,764
2016-09-25T10:57:39.748Z,772
2016-09-25T10:58:05.309Z,776
2016-09-25T10:59:13.791Z,792
2016-09-25T10:59:39.367Z,800
2016-09-25T11:00:04.928Z,804
2016-09-25T11:00:30.495Z,804
2016-09-25T11:00:56.096Z,812
2016-09-25T11:01:21.669Z,820
2016-09-25T11:01:47.243Z,820
2016-09-25T11:02:12.835Z,824
2016-09-25T11:02:38.494Z,832
2016-09-25T11:03:04.052Z,840
2016-09-25T11:03:29.596Z,844
2016-09-25T11:03:55.180Z,848
2016-09-25T11:04:20.767Z,856
2016-09-25T11:04:46.335Z,860
2016-09-25T11:06:05.017Z,876
2016-09-25T11:06:30.631Z,880
2016-09-25T11:06:56.203Z,888
2016-09-25T11:07:21.832Z,896
2016-09-25T11:07:47.425Z,900
2016-09-25T11:08:12.994Z,908
2016-09-25T11:08:38.558Z,908
2016-09-25T11:09:04.243Z,916
2016-09-25T11:09:29.806Z,916
2016-09-25T11:09:55.364Z,924
2016-09-25T11:10:20.983Z,932
2016-09-25T11:10:46.606Z,936
2016-09-25T11:11:12.165Z,944
2016-09-25T11:11:37.756Z,948
2016-09-25T11:12:03.443Z,956
2016-09-25T11:12:29.015Z,960
2016-09-25T11:12:54.590Z,964
2016-09-25T11:13:20.299Z,968
2016-09-25T11:13:45.887Z,972
2016-09-25T11:14:11.441Z,980
2016-09-25T11:14:37.056Z,984
2016-09-25T11:15:02.676Z,988
2016-09-25T11:15:28.198Z,992
2016-09-25T11:15:53.798Z,996
2016-09-25T11:16:19.765Z,1004
2016-09-25T11:16:45.336Z,1012
2016-09-25T11:17:10.933Z,1020
2016-09-25T11:17:36.505Z,1024
2016-09-25T11:18:02.094Z,1028
2016-09-25T11:18:27.696Z,1032
2016-09-25T11:18:53.276Z,1040
2016-09-25T11:19:18.856Z,1048
2016-09-25T11:19:44.417Z,1052
2016-09-25T11:20:10.001Z,1052
2016-09-25T11:20:35.566Z,1060
2016-09-25T11:21:01.129Z,1064
2016-09-25T11:23:12.658Z,1096
2016-09-25T11:23:38.225Z,1108
2016-09-25T11:24:03.780Z,1120
2016-09-25T11:24:29.326Z,1120
2016-09-25T11:24:54.954Z,1128
2016-09-25T11:25:20.571Z,1136
2016-09-25T11:25:46.137Z,1140
2016-09-25T11:26:11.754Z,1144
2016-09-25T11:28:56.496Z,1180
2016-09-25T11:30:10.035Z,1204
2016-09-25T11:30:35.597Z,1212
2016-09-25T11:31:01.171Z,1220
2016-09-25T11:31:26.779Z,1228
2016-09-25T11:31:52.361Z,1240
2016-09-25T11:32:17.966Z,1244
2016-09-25T11:32:43.545Z,1248
2016-09-25T11:33:09.113Z,1252
2016-09-25T11:33:34.726Z,1256
2016-09-25T11:34:00.379Z,1264
2016-09-25T11:34:25.949Z,1272
2016-09-25T11:34:51.528Z,1268
2016-09-25T11:35:17.177Z,1272
2016-09-25T11:35:42.729Z,1288
2016-09-25T11:36:08.307Z,1296
2016-09-25T11:36:33.849Z,1300
2016-09-25T11:36:59.552Z,1308
2016-09-25T11:37:25.146Z,1316
2016-09-25T11:37:50.737Z,1324
2016-09-25T11:38:16.360Z,1336
2016-09-25T11:38:41.976Z,1348
2016-09-25T11:39:07.564Z,1356
2016-09-25T11:40:21.078Z,1384
2016-09-25T11:40:46.692Z,1392
2016-09-25T11:41:12.287Z,1416
2016-09-25T11:41:37.853Z,1416
2016-09-25T11:42:03.437Z,1428
2016-09-25T11:42:29.001Z,1436
2016-09-25T11:42:54.578Z,1436
2016-09-25T11:44:07.991Z,1464
2016-09-25T11:44:33.548Z,1480
2016-09-25T11:44:59.123Z,1492
2016-09-25T11:45:24.750Z,1492
2016-09-25T11:45:50.399Z,1504
2016-09-25T11:46:15.961Z,1516
2016-09-25T11:46:41.539Z,1528
2016-09-25T11:47:07.134Z,1524
2016-09-25T11:47:32.679Z,1532
2016-09-25T11:47:58.301Z,1540
2016-09-25T11:48:23.833Z,1544
2016-09-25T11:48:49.595Z,1560
2016-09-25T11:49:15.145Z,1572
2016-09-25T11:49:40.675Z,1580
2016-09-25T11:50:06.222Z,1604
2016-09-25T11:50:31.816Z,1604